createdAt,value
2023-05-22T00:02:11.996Z,9.10
2023-05-22T00:04:40.938Z,8.10
2023-05-22T00:07:09.329Z,9.00
2023-05-22T00:09:37.655Z,7.80
2023-05-22T00:12:06.559Z,8.60
2023-05-22T00:14:34.896Z,8.70
2023-05-22T00:17:04.624Z,8.60
2023-05-22T00:19:33.487Z,7.90
2023-05-22T00:22:01.864Z,8.30
2023-05-22T00:24:30.106Z,8.30
2023-05-22T00:26:58.463Z,8.30
2023-05-22T00:29:26.870Z,8.00
2023-05-22T00:31:55.587Z,7.90
2023-05-22T00:34:24.111Z,7.70
2023-05-22T00:36:52.485Z,7.80
2023-05-22T00:39:20.852Z,7.80
2023-05-22T00:41:49.172Z,7.30
2023-05-22T00:44:17.598Z,7.90
2023-05-22T00:46:47.854Z,8.10
2023-05-22T00:49:16.154Z,8.40
2023-05-22T00:51:44.925Z,8.40
2023-05-22T00:54:14.232Z,8.50
2023-05-22T00:56:43.506Z,7.00
2023-05-22T00:59:12.226Z,7.40
2023-05-22T01:01:43.025Z,6.80
2023-05-22T01:04:12.833Z,7.00
2023-05-22T01:06:41.496Z,7.00
2023-05-22T01:09:11.266Z,7.10
2023-05-22T01:12:16.480Z,6.90
2023-05-22T01:15:05.021Z,6.90
2023-05-22T01:17:59.102Z,7.90
2023-05-22T01:20:42.026Z,8.50
2023-05-22T01:23:42.909Z,7.20
2023-05-22T01:26:29.930Z,6.50
2023-05-22T01:29:20.118Z,7.20
2023-05-22T01:31:51.653Z,7.70
2023-05-22T01:34:21.584Z,8.10
2023-05-22T01:36:52.128Z,6.80
2023-05-22T01:39:21.804Z,6.00
2023-05-22T01:41:51.349Z,6.10
2023-05-22T01:44:19.789Z,7.60
2023-05-22T01:46:48.111Z,7.40
2023-05-22T01:49:16.875Z,7.10
2023-05-22T01:51:53.938Z,7.40
2023-05-22T01:54:30.468Z,7.50
2023-05-22T01:57:12.620Z,6.40
2023-05-22T01:59:47.745Z,7.20
2023-05-22T02:02:19.347Z,6.60
2023-05-22T02:05:01.137Z,6.30
2023-05-22T02:07:31.011Z,6.70
2023-05-22T02:10:01.446Z,7.40
2023-05-22T02:12:29.706Z,6.30
2023-05-22T02:14:58.252Z,6.60
2023-05-22T02:17:27.514Z,6.60
2023-05-22T02:19:55.896Z,6.30
2023-05-22T02:22:24.164Z,6.00
2023-05-22T02:24:52.522Z,6.40
2023-05-22T02:27:20.971Z,6.00
2023-05-22T02:29:49.205Z,6.30
2023-05-22T02:32:17.578Z,5.60
2023-05-22T02:34:45.902Z,5.80
2023-05-22T02:37:16.063Z,5.70
2023-05-22T02:39:44.487Z,5.90
2023-05-22T02:42:12.857Z,5.80
2023-05-22T02:44:41.177Z,5.60
2023-05-22T02:47:09.584Z,6.10
2023-05-22T02:49:37.855Z,5.50
2023-05-22T02:52:06.388Z,5.40
2023-05-22T02:54:34.844Z,5.80
2023-05-22T02:57:03.233Z,5.70
2023-05-22T02:59:31.942Z,5.80
2023-05-22T03:02:00.429Z,6.50
2023-05-22T03:04:29.762Z,5.30
2023-05-22T03:06:58.146Z,5.50
2023-05-22T03:09:27.077Z,5.70
2023-05-22T03:11:55.477Z,5.70
2023-05-22T03:14:23.785Z,5.50
2023-05-22T03:16:55.018Z,7.50
2023-05-22T03:19:24.836Z,5.30
2023-05-22T03:21:53.988Z,5.30
2023-05-22T03:24:23.373Z,5.60
2023-05-22T03:26:51.812Z,4.90
2023-05-22T03:29:25.626Z,5.20
2023-05-22T03:31:54.809Z,5.40
2023-05-22T03:34:27.544Z,5.60
2023-05-22T03:36:58.088Z,5.50
2023-05-22T03:39:26.498Z,5.70
2023-05-22T03:42:13.733Z,6.00
2023-05-22T03:44:42.088Z,6.00
2023-05-22T03:47:10.374Z,6.10
2023-05-22T03:49:38.707Z,6.00
2023-05-22T03:52:10.856Z,5.70
2023-05-22T03:54:39.145Z,6.60
2023-05-22T03:57:07.715Z,6.20
2023-05-22T03:59:37.395Z,7.20
2023-05-22T04:02:06.009Z,7.20
2023-05-22T04:04:38.842Z,6.60
2023-05-22T04:07:09.192Z,6.60
2023-05-22T04:09:37.506Z,7.30
2023-05-22T04:12:06.494Z,6.50
2023-05-22T04:14:34.954Z,7.50
2023-05-22T04:17:03.331Z,6.90
2023-05-22T04:19:31.584Z,7.20
2023-05-22T04:22:00.120Z,7.10
2023-05-22T04:24:28.298Z,6.40
2023-05-22T04:27:00.495Z,6.00
2023-05-22T04:29:29.760Z,6.60
2023-05-22T04:31:58.136Z,6.60
2023-05-22T04:34:26.493Z,6.00
2023-05-22T04:36:55.099Z,6.80
2023-05-22T04:39:26.445Z,6.40
2023-05-22T04:41:55.103Z,6.40
2023-05-22T04:44:24.009Z,6.70
2023-05-22T04:46:53.582Z,6.20
2023-05-22T04:49:22.066Z,6.40
2023-05-22T04:51:50.416Z,7.10
2023-05-22T04:54:19.821Z,7.40
2023-05-22T04:56:54.064Z,7.60
2023-05-22T04:59:26.787Z,7.90
2023-05-22T05:01:55.179Z,7.30
2023-05-22T05:04:23.497Z,8.20
2023-05-22T05:06:53.716Z,9.00
2023-05-22T05:09:22.108Z,9.00
2023-05-22T05:11:52.409Z,8.60
2023-05-22T05:14:20.886Z,9.30
2023-05-22T05:16:49.444Z,8.90
2023-05-22T05:19:21.671Z,8.80
2023-05-22T05:21:50.528Z,9.40
2023-05-22T05:24:18.979Z,9.20
2023-05-22T05:26:47.453Z,8.20
2023-05-22T05:29:16.956Z,8.00
2023-05-22T05:32:06.026Z,8.20
2023-05-22T05:34:45.538Z,7.80
2023-05-22T05:37:29.598Z,8.70
2023-05-22T05:40:00.821Z,8.50
2023-05-22T05:42:29.248Z,8.10
2023-05-22T05:44:59.681Z,8.20
2023-05-22T05:47:30.007Z,8.10
2023-05-22T05:49:59.070Z,8.00
2023-05-22T05:52:32.718Z,8.20
2023-05-22T05:55:03.786Z,7.50
2023-05-22T05:57:32.248Z,7.50
2023-05-22T06:00:01.497Z,8.20
2023-05-22T06:02:42.984Z,8.30
2023-05-22T06:05:23.634Z,7.20
2023-05-22T06:07:58.475Z,8.20
2023-05-22T06:10:26.915Z,8.30
2023-05-22T06:13:14.637Z,7.80
2023-05-22T06:15:42.991Z,8.50
2023-05-22T06:18:11.848Z,8.70
2023-05-22T06:20:40.950Z,7.80
2023-05-22T06:23:09.657Z,7.30
2023-05-22T06:25:40.137Z,7.70
2023-05-22T06:28:08.854Z,7.10
2023-05-22T06:30:40.188Z,6.80
2023-05-22T06:33:14.757Z,6.10
2023-05-22T06:35:43.355Z,6.10
2023-05-22T06:38:12.231Z,6.70
2023-05-22T06:40:40.963Z,6.00
2023-05-22T06:43:22.085Z,5.30
2023-05-22T06:45:55.733Z,5.90
2023-05-22T06:48:24.100Z,5.80
2023-05-22T06:51:15.362Z,5.50
2023-05-22T06:53:43.622Z,4.90
2023-05-22T06:56:15.276Z,5.40
2023-05-22T06:59:06.125Z,5.10
2023-05-22T07:01:57.689Z,4.80
2023-05-22T07:04:35.349Z,4.90
2023-05-22T07:07:10.243Z,5.50
2023-05-22T07:09:39.268Z,4.50
2023-05-22T07:12:08.225Z,4.80
2023-05-22T07:14:36.702Z,4.90
2023-05-22T07:17:05.604Z,5.00
2023-05-22T07:19:38.370Z,5.00
2023-05-22T07:22:06.763Z,5.50
2023-05-22T07:24:36.246Z,5.60
2023-05-22T07:27:05.687Z,5.30
2023-05-22T07:29:34.803Z,5.20
2023-05-22T07:32:03.476Z,5.10
2023-05-22T07:34:34.634Z,4.80
2023-05-22T07:37:09.384Z,5.00
2023-05-22T07:39:37.802Z,4.90
2023-05-22T07:42:06.576Z,5.00
2023-05-22T07:44:39.188Z,5.30
2023-05-22T07:47:08.037Z,4.90
2023-05-22T07:49:36.790Z,4.90
2023-05-22T07:52:05.954Z,5.00
2023-05-22T07:54:34.348Z,5.10
2023-05-22T07:57:03.812Z,5.10
2023-05-22T07:59:36.280Z,5.30
2023-05-22T08:02:04.934Z,6.00
2023-05-22T08:04:33.680Z,5.70
2023-05-22T08:07:02.634Z,6.60
2023-05-22T08:09:31.025Z,6.70
2023-05-22T08:12:03.216Z,7.10
2023-05-22T08:14:31.587Z,6.00
2023-05-22T08:17:00.444Z,5.90
2023-05-22T08:19:28.938Z,5.80
2023-05-22T08:22:00.239Z,5.60
2023-05-22T08:24:29.924Z,5.80
2023-05-22T08:26:58.885Z,5.00
2023-05-22T08:29:28.788Z,5.20
2023-05-22T08:31:58.520Z,4.90
2023-05-22T08:34:28.625Z,5.10
2023-05-22T08:36:57.094Z,4.70
2023-05-22T08:39:25.769Z,4.80
2023-05-22T08:41:54.329Z,4.40
2023-05-22T08:44:22.748Z,4.20
2023-05-22T08:46:52.583Z,4.70
2023-05-22T08:49:24.008Z,4.00
2023-05-22T08:52:06.109Z,4.40
2023-05-22T08:54:36.950Z,3.80
2023-05-22T08:57:06.240Z,3.80
2023-05-22T08:59:40.356Z,4.00
2023-05-22T09:02:10.253Z,4.00
2023-05-22T09:04:41.253Z,3.90
2023-05-22T09:07:09.751Z,4.20
2023-05-22T09:09:39.325Z,4.20
2023-05-22T09:12:09.792Z,4.40
2023-05-22T09:14:40.169Z,3.60
2023-05-22T09:17:11.498Z,4.20
2023-05-22T09:19:44.747Z,3.80
2023-05-22T09:22:14.034Z,3.80
2023-05-22T09:24:45.031Z,3.80
2023-05-22T09:27:13.360Z,3.80
2023-05-22T09:29:50.966Z,3.70
2023-05-22T09:32:20.282Z,4.00
2023-05-22T09:34:49.556Z,3.60
2023-05-22T09:37:18.542Z,3.50
2023-05-22T09:39:48.261Z,3.80
2023-05-22T09:42:17.835Z,3.80
2023-05-22T09:44:50.094Z,4.10
2023-05-22T09:47:19.147Z,3.80
2023-05-22T09:49:47.763Z,4.00
2023-05-22T09:52:18.168Z,4.10
2023-05-22T09:54:56.706Z,4.10
2023-05-22T09:57:29.004Z,4.00
2023-05-22T09:59:59.398Z,4.10
2023-05-22T10:02:29.106Z,4.30
2023-05-22T10:04:59.820Z,4.20
2023-05-22T10:07:40.336Z,3.50
2023-05-22T10:10:12.304Z,3.80
2023-05-22T10:12:45.579Z,3.70
2023-05-22T10:15:14.064Z,3.50
2023-05-22T10:17:42.544Z,3.80
2023-05-22T10:20:12.783Z,3.90
2023-05-22T10:22:42.115Z,3.70
2023-05-22T10:25:11.515Z,4.00
2023-05-22T10:27:41.301Z,3.40
2023-05-22T10:30:28.474Z,4.00
2023-05-22T10:33:25.226Z,4.20
2023-05-22T10:36:02.635Z,3.80
2023-05-22T10:38:55.716Z,4.10
2023-05-22T10:41:25.905Z,3.70
2023-05-22T10:43:57.483Z,3.60
2023-05-22T10:46:25.872Z,4.10
2023-05-22T10:48:55.587Z,3.60
2023-05-22T10:51:24.837Z,3.80
2023-05-22T10:54:05.803Z,3.50
2023-05-22T10:56:35.758Z,3.50
2023-05-22T10:59:07.621Z,3.40
2023-05-22T11:01:38.185Z,3.60
2023-05-22T11:04:19.316Z,3.80
2023-05-22T11:07:06.944Z,3.70
2023-05-22T11:09:43.275Z,3.90
2023-05-22T11:12:25.861Z,3.10
2023-05-22T11:14:56.940Z,3.70
2023-05-22T11:17:28.055Z,4.50
2023-05-22T11:20:08.087Z,4.00
2023-05-22T11:22:37.826Z,3.80
2023-05-22T11:25:11.893Z,3.70
2023-05-22T11:27:41.525Z,3.80
2023-05-22T11:30:11.850Z,3.20
2023-05-22T11:32:44.582Z,3.90
2023-05-22T11:35:19.092Z,3.70
2023-05-22T11:37:49.071Z,3.70
2023-05-22T11:40:21.462Z,3.40
2023-05-22T11:42:50.200Z,4.50
2023-05-22T11:45:18.682Z,3.80
2023-05-22T11:47:47.260Z,3.90
2023-05-22T11:50:20.282Z,4.00
2023-05-22T11:52:59.480Z,4.00
2023-05-22T11:55:27.710Z,4.10
2023-05-22T11:57:56.801Z,3.80
2023-05-22T12:00:26.451Z,3.60
2023-05-22T12:02:55.528Z,3.80
2023-05-22T12:05:23.925Z,3.80
2023-05-22T12:07:52.757Z,3.50
2023-05-22T12:10:21.029Z,4.10
2023-05-22T12:12:49.798Z,3.50
2023-05-22T12:15:21.297Z,3.60
2023-05-22T12:17:49.758Z,3.70
2023-05-22T12:20:18.517Z,3.60
2023-05-22T12:22:46.990Z,3.70
2023-05-22T12:25:17.624Z,4.30
2023-05-22T12:27:46.416Z,4.40
2023-05-22T12:30:15.566Z,3.80
2023-05-22T12:32:49.250Z,4.40
2023-05-22T12:35:19.127Z,4.00
2023-05-22T12:37:50.157Z,3.40
2023-05-22T12:40:18.641Z,4.10
2023-05-22T12:42:48.205Z,3.30
2023-05-22T12:45:18.097Z,3.90
2023-05-22T12:47:47.064Z,3.70
2023-05-22T12:50:15.543Z,4.10
2023-05-22T12:52:43.813Z,3.90
2023-05-22T12:55:12.226Z,3.70
2023-05-22T12:57:40.841Z,4.20
2023-05-22T13:00:10.200Z,4.50
2023-05-22T13:02:38.690Z,4.10
2023-05-22T13:05:07.344Z,3.80
2023-05-22T13:07:35.715Z,4.00
2023-05-22T13:10:05.247Z,3.80
2023-05-22T13:12:33.857Z,3.80
2023-05-22T13:15:02.793Z,4.00
2023-05-22T13:17:31.313Z,3.90
2023-05-22T13:19:59.902Z,4.20
2023-05-22T13:22:28.296Z,4.10
2023-05-22T13:24:56.700Z,3.90
2023-05-22T13:27:25.086Z,3.90
2023-05-22T13:29:53.384Z,3.80
2023-05-22T13:32:21.852Z,4.20
2023-05-22T13:34:50.186Z,3.80
2023-05-22T13:37:18.816Z,4.00
2023-05-22T13:39:47.221Z,4.40
2023-05-22T13:42:15.766Z,4.30
2023-05-22T13:44:46.957Z,4.00
2023-05-22T13:47:16.713Z,4.00
2023-05-22T13:49:47.453Z,4.20
2023-05-22T13:52:16.503Z,4.10
2023-05-22T13:54:45.035Z,3.80
2023-05-22T13:57:15.922Z,4.00
2023-05-22T13:59:44.580Z,3.80
2023-05-22T14:02:14.717Z,4.30
2023-05-22T14:04:43.342Z,3.70
2023-05-22T14:07:11.844Z,3.90
2023-05-22T14:09:43.554Z,5.30
2023-05-22T14:12:12.231Z,4.50
2023-05-22T14:14:40.874Z,4.10
2023-05-22T14:17:09.610Z,4.50
2023-05-22T14:19:39.397Z,4.80
2023-05-22T14:22:07.954Z,4.20
2023-05-22T14:24:36.606Z,4.90
2023-05-22T14:27:06.314Z,4.10
2023-05-22T14:29:34.795Z,4.10
2023-05-22T14:32:05.131Z,4.30
2023-05-22T14:34:35.420Z,4.50
2023-05-22T14:37:06.789Z,4.80
2023-05-22T14:39:35.313Z,4.30
2023-05-22T14:42:04.070Z,5.00
2023-05-22T14:44:32.495Z,5.10
2023-05-22T14:47:01.041Z,4.60
2023-05-22T14:49:29.597Z,4.50
2023-05-22T14:51:57.978Z,5.30
2023-05-22T14:54:27.447Z,4.10
2023-05-22T14:56:56.002Z,4.90
2023-05-22T14:59:25.842Z,4.30
2023-05-22T15:01:54.675Z,6.40
2023-05-22T15:04:24.008Z,5.50
2023-05-22T15:06:52.471Z,5.10
2023-05-22T15:09:21.191Z,4.50
2023-05-22T15:11:52.614Z,5.50
2023-05-22T15:14:21.590Z,5.60
2023-05-22T15:16:50.254Z,5.10
2023-05-22T15:19:19.043Z,4.70
2023-05-22T15:21:47.590Z,5.40
2023-05-22T15:24:16.295Z,4.60
2023-05-22T15:26:44.691Z,4.90
2023-05-22T15:29:13.206Z,5.10
2023-05-22T15:31:41.795Z,4.70
2023-05-22T15:34:10.294Z,5.20
2023-05-22T15:36:40.494Z,5.60
2023-05-22T15:39:08.989Z,4.40
2023-05-22T15:41:37.573Z,5.10
2023-05-22T15:44:11.510Z,5.20
2023-05-22T15:46:39.944Z,5.60
2023-05-22T15:49:10.664Z,5.50
2023-05-22T15:51:39.229Z,4.60
2023-05-22T15:54:14.228Z,5.20
2023-05-22T15:56:45.565Z,5.50
2023-05-22T15:59:18.280Z,5.10
2023-05-22T16:01:47.235Z,4.80
2023-05-22T16:04:16.142Z,4.80
2023-05-22T16:06:44.643Z,6.40
2023-05-22T16:09:17.531Z,5.90
2023-05-22T16:11:45.926Z,5.50
2023-05-22T16:14:16.618Z,5.80
2023-05-22T16:16:45.049Z,5.10
2023-05-22T16:19:13.471Z,6.60
2023-05-22T16:21:44.050Z,5.00
2023-05-22T16:24:15.752Z,6.00
2023-05-22T16:26:44.270Z,4.70
2023-05-22T16:29:12.645Z,4.90
2023-05-22T16:31:42.378Z,5.00
2023-05-22T16:34:10.881Z,4.80
2023-05-22T16:36:40.461Z,5.20
2023-05-22T16:39:10.070Z,4.40
2023-05-22T16:41:38.691Z,4.60
2023-05-22T16:44:10.196Z,5.60
2023-05-22T16:46:41.615Z,5.90
2023-05-22T16:49:10.020Z,4.80
2023-05-22T16:51:38.402Z,4.80
2023-05-22T16:54:06.918Z,5.30
2023-05-22T16:56:35.734Z,5.70
2023-05-22T16:59:05.409Z,5.20
2023-05-22T17:01:37.521Z,5.70
2023-05-22T17:04:14.999Z,5.10
2023-05-22T17:06:43.769Z,5.10
2023-05-22T17:09:12.531Z,5.40
2023-05-22T17:11:41.073Z,5.00
2023-05-22T17:14:09.592Z,5.60
2023-05-22T17:16:39.852Z,8.50
2023-05-22T17:19:09.260Z,7.80
2023-05-22T17:21:38.058Z,8.80
2023-05-22T17:24:12.120Z,16.30
2023-05-22T17:26:46.366Z,8.40
2023-05-22T17:29:15.063Z,9.40
2023-05-22T17:31:43.720Z,7.90
2023-05-22T17:34:12.248Z,8.70
2023-05-22T17:36:45.102Z,7.10
2023-05-22T17:39:14.142Z,6.20
2023-05-22T17:41:42.522Z,6.20
2023-05-22T17:44:11.025Z,5.00
2023-05-22T17:46:40.399Z,5.00
2023-05-22T17:49:11.678Z,4.90
2023-05-22T17:51:40.175Z,5.10
2023-05-22T17:54:09.449Z,4.60
2023-05-22T17:56:37.957Z,5.40
2023-05-22T17:59:09.643Z,5.90
2023-05-22T18:01:38.238Z,5.70
2023-05-22T18:04:07.511Z,5.00
2023-05-22T18:06:36.058Z,5.30
2023-05-22T18:09:07.885Z,5.20
2023-05-22T18:11:36.486Z,5.30
2023-05-22T18:14:04.999Z,6.50
2023-05-22T18:16:36.034Z,6.20
2023-05-22T18:19:04.700Z,10.10
2023-05-22T18:21:37.709Z,10.70
2023-05-22T18:24:06.499Z,10.90
2023-05-22T18:26:35.014Z,11.80
2023-05-22T18:29:06.193Z,9.30
2023-05-22T18:31:34.809Z,7.90
2023-05-22T18:34:04.037Z,8.50
2023-05-22T18:36:32.480Z,7.40
2023-05-22T18:39:00.978Z,8.60
2023-05-22T18:41:29.548Z,9.10
2023-05-22T18:43:57.881Z,8.70
2023-05-22T18:46:27.519Z,8.70
2023-05-22T18:48:56.195Z,10.70
2023-05-22T18:51:24.956Z,8.70
2023-05-22T18:53:53.668Z,8.90
2023-05-22T18:56:22.129Z,8.80
2023-05-22T18:58:50.454Z,8.40
2023-05-22T19:01:19.075Z,8.10
2023-05-22T19:03:47.542Z,7.60
2023-05-22T19:06:16.138Z,8.20
2023-05-22T19:08:44.542Z,11.70
2023-05-22T19:11:12.912Z,11.40
2023-05-22T19:13:41.817Z,10.70
2023-05-22T19:16:10.872Z,12.50
2023-05-22T19:18:39.333Z,11.10
2023-05-22T19:21:07.970Z,10.40
2023-05-22T19:23:37.095Z,10.50
2023-05-22T19:26:05.670Z,10.20
2023-05-22T19:28:34.034Z,9.20
2023-05-22T19:31:03.315Z,8.10
2023-05-22T19:33:32.093Z,9.00
2023-05-22T19:36:02.322Z,8.70
2023-05-22T19:38:31.513Z,8.00
2023-05-22T19:40:59.873Z,7.70
2023-05-22T19:43:31.387Z,8.10
2023-05-22T19:45:59.833Z,7.90
2023-05-22T19:48:30.128Z,8.50
2023-05-22T19:50:58.524Z,8.60
2023-05-22T19:53:27.119Z,8.30
2023-05-22T19:55:55.687Z,8.40
2023-05-22T19:58:24.464Z,9.10
2023-05-22T20:00:52.876Z,8.80
2023-05-22T20:03:21.513Z,10.00
2023-05-22T20:05:55.759Z,8.10
2023-05-22T20:08:25.798Z,8.80
2023-05-22T20:10:54.349Z,8.60
2023-05-22T20:13:23.305Z,8.50
2023-05-22T20:15:53.623Z,9.00
2023-05-22T20:18:23.132Z,10.00
2023-05-22T20:20:51.874Z,9.80
2023-05-22T20:23:20.105Z,9.30
2023-05-22T20:25:48.472Z,9.60
2023-05-22T20:28:16.828Z,9.20
2023-05-22T20:30:45.159Z,9.60
2023-05-22T20:33:14.562Z,9.70
2023-05-22T20:35:43.908Z,8.70
2023-05-22T20:38:14.543Z,9.70
2023-05-22T20:40:46.815Z,9.10
2023-05-22T20:43:15.334Z,10.00
2023-05-22T20:45:45.884Z,9.10
2023-05-22T20:48:14.715Z,8.80
2023-05-22T20:50:43.166Z,9.40
2023-05-22T20:53:12.579Z,8.90
2023-05-22T20:55:41.515Z,8.20
2023-05-22T20:58:10.282Z,9.30
2023-05-22T21:00:41.831Z,9.10
2023-05-22T21:03:11.883Z,9.00
2023-05-22T21:05:40.524Z,8.70
2023-05-22T21:08:09.200Z,8.20
2023-05-22T21:10:37.787Z,8.40
2023-05-22T21:13:06.907Z,8.50
2023-05-22T21:15:38.273Z,8.80
2023-05-22T21:18:06.943Z,9.10
2023-05-22T21:20:35.278Z,7.50
2023-05-22T21:23:04.096Z,8.80
2023-05-22T21:25:32.622Z,7.90
2023-05-22T21:28:01.992Z,8.40
2023-05-22T21:30:31.741Z,8.40
2023-05-22T21:33:01.247Z,8.20
2023-05-22T21:35:29.572Z,7.30
2023-05-22T21:37:57.910Z,8.00
2023-05-22T21:40:26.987Z,8.70
2023-05-22T21:42:55.465Z,7.30
2023-05-22T21:45:26.545Z,8.10
2023-05-22T21:47:54.981Z,8.00
2023-05-22T21:50:23.211Z,8.70
2023-05-22T21:52:51.603Z,8.30
2023-05-22T21:55:24.719Z,7.90
2023-05-22T21:57:52.993Z,9.20
2023-05-22T22:00:21.421Z,8.40
2023-05-22T22:02:49.877Z,7.90
2023-05-22T22:05:19.144Z,7.80
2023-05-22T22:07:47.610Z,7.70
2023-05-22T22:10:16.005Z,9.10
2023-05-22T22:12:44.430Z,8.10
2023-05-22T22:15:12.806Z,7.50
2023-05-22T22:17:41.303Z,7.40
2023-05-22T22:20:10.348Z,7.30
2023-05-22T22:22:40.844Z,7.80
2023-05-22T22:25:09.393Z,7.60
2023-05-22T22:27:37.619Z,7.70
2023-05-22T22:30:06.692Z,9.00
2023-05-22T22:32:34.942Z,7.30
2023-05-22T22:35:03.324Z,7.80
2023-05-22T22:37:32.125Z,7.80
2023-05-22T22:40:00.401Z,7.50
2023-05-22T22:42:28.909Z,7.50
2023-05-22T22:44:57.310Z,6.90
2023-05-22T22:47:27.456Z,6.90
2023-05-22T22:49:58.748Z,7.60
2023-05-22T22:52:27.123Z,8.00
2023-05-22T22:54:55.667Z,7.50
2023-05-22T22:57:24.085Z,7.60
2023-05-22T22:59:52.469Z,8.20
2023-05-22T23:02:20.806Z,7.40
2023-05-22T23:04:49.129Z,7.20
2023-05-22T23:07:17.538Z,7.20
2023-05-22T23:09:45.861Z,7.10
2023-05-22T23:12:14.098Z,7.30
2023-05-22T23:14:42.497Z,8.30
2023-05-22T23:17:10.790Z,7.90
2023-05-22T23:19:39.037Z,7.10
2023-05-22T23:22:07.452Z,8.10
2023-05-22T23:24:35.795Z,7.70
2023-05-22T23:27:04.270Z,7.30
2023-05-22T23:29:32.542Z,7.80
2023-05-22T23:32:00.927Z,7.80
2023-05-22T23:34:29.250Z,8.30
2023-05-22T23:36:57.562Z,7.70
2023-05-22T23:39:26.790Z,7.50
2023-05-22T23:41:55.131Z,7.40
2023-05-22T23:44:23.525Z,8.00
2023-05-22T23:46:51.830Z,7.80
2023-05-22T23:49:20.151Z,7.20
2023-05-22T23:51:49.350Z,7.50
2023-05-22T23:54:18.085Z,6.90
2023-05-22T23:56:46.348Z,7.30
2023-05-22T23:59:15.913Z,7.50
